createdAt,value
2019-03-23T00:00:06.837Z,5.60
2019-03-23T00:05:11.258Z,5.50
2019-03-23T00:10:16.816Z,5.40
2019-03-23T00:15:21.866Z,5.30
2019-03-23T00:20:27.305Z,5.20
2019-03-23T00:25:31.929Z,5.20
2019-03-23T00:30:35.507Z,5.20
2019-03-23T00:35:45.678Z,5.10
2019-03-23T00:40:57.425Z,5.00
2019-03-23T00:46:02.528Z,5.00
2019-03-23T00:51:28.395Z,5.00
2019-03-23T00:57:18.436Z,4.90
2019-03-23T01:03:00.678Z,4.80
2019-03-23T01:08:07.859Z,4.70
2019-03-23T01:13:18.186Z,4.60
2019-03-23T01:18:25.257Z,4.60
2019-03-23T01:23:29.759Z,4.40
2019-03-23T01:28:34.439Z,4.30
2019-03-23T01:33:37.905Z,4.30
2019-03-23T01:38:42.525Z,4.20
2019-03-23T01:43:46.884Z,4.20
2019-03-23T01:48:52.780Z,4.10
2019-03-23T01:54:01.931Z,4.10
2019-03-23T01:59:09.356Z,4.10
2019-03-23T02:04:33.203Z,4.10
2019-03-23T02:09:42.415Z,4.00
2019-03-23T02:14:46.807Z,4.00
2019-03-23T02:19:51.915Z,3.90
2019-03-23T02:24:58.729Z,3.90
2019-03-23T02:30:03.566Z,3.80
2019-03-23T02:35:08.970Z,3.80
2019-03-23T02:40:13.432Z,3.80
2019-03-23T02:45:20.516Z,3.90
2019-03-23T02:50:25.202Z,4.00
2019-03-23T02:55:29.694Z,4.10
2019-03-23T03:00:34.173Z,4.30
2019-03-23T03:05:41.225Z,4.40
2019-03-23T03:11:23.729Z,4.40
2019-03-23T03:16:29.080Z,4.50
2019-03-23T03:21:36.676Z,4.60
2019-03-23T03:26:42.635Z,4.70
2019-03-23T03:31:51.211Z,4.80
2019-03-23T03:36:58.427Z,4.80
2019-03-23T03:42:21.827Z,4.90
2019-03-23T03:47:43.935Z,4.90
2019-03-23T03:52:52.309Z,4.90
2019-03-23T03:58:02.324Z,4.90
2019-03-23T04:03:06.919Z,5.00
2019-03-23T04:08:12.720Z,5.00
2019-03-23T04:13:17.044Z,5.10
2019-03-23T04:18:43.168Z,5.20
2019-03-23T04:23:47.777Z,5.20
2019-03-23T04:28:54.974Z,5.10
2019-03-23T04:33:59.634Z,5.00
2019-03-23T04:39:06.035Z,5.00
2019-03-23T04:44:14.384Z,5.00
2019-03-23T04:49:19.294Z,5.00
2019-03-23T04:54:23.939Z,5.10
2019-03-23T04:59:31.139Z,5.30
2019-03-23T05:04:35.558Z,5.60
2019-03-23T05:09:40.294Z,5.80
2019-03-23T05:15:01.352Z,6.00
2019-03-23T05:20:06.853Z,6.10
2019-03-23T05:25:22.186Z,6.20
2019-03-23T05:30:29.615Z,6.30
2019-03-23T05:35:36.584Z,6.30
2019-03-23T05:40:48.345Z,6.30
2019-03-23T05:45:53.648Z,6.30
2019-03-23T05:50:58.407Z,6.30
2019-03-23T05:56:02.754Z,6.30
2019-03-23T06:01:07.157Z,6.30
2019-03-23T06:06:11.843Z,6.30
2019-03-23T06:11:16.464Z,6.30
2019-03-23T06:16:23.647Z,6.30
2019-03-23T06:21:28.001Z,6.20
2019-03-23T06:26:34.046Z,6.30
2019-03-23T06:31:39.519Z,6.30
2019-03-23T06:36:51.160Z,6.30
2019-03-23T06:41:57.210Z,6.30
2019-03-23T06:47:02.801Z,6.40
2019-03-23T06:52:07.108Z,6.40
2019-03-23T06:57:11.412Z,6.40
2019-03-23T07:02:18.197Z,6.50
2019-03-23T07:07:23.090Z,6.50
2019-03-23T07:12:29.139Z,6.40
2019-03-23T07:17:58.155Z,6.50
2019-03-23T07:23:02.966Z,6.50
2019-03-23T07:28:08.061Z,6.60
2019-03-23T07:33:13.803Z,6.60
2019-03-23T07:38:18.581Z,6.60
2019-03-23T07:43:22.939Z,6.70
2019-03-23T07:48:30.825Z,6.70
2019-03-23T07:53:54.589Z,6.70
2019-03-23T07:58:59.032Z,6.70
2019-03-23T08:04:13.979Z,6.70
2019-03-23T08:09:20.718Z,6.80
2019-03-23T08:14:32.771Z,6.80
2019-03-23T08:19:37.546Z,6.80
2019-03-23T08:24:42.277Z,6.80
2019-03-23T08:29:45.518Z,6.80
2019-03-23T08:34:49.873Z,6.90
2019-03-23T08:39:54.146Z,7.00
2019-03-23T08:44:58.537Z,7.00
2019-03-23T08:50:02.891Z,7.10
2019-03-23T08:55:07.184Z,7.20
2019-03-23T09:00:11.632Z,7.20
2019-03-23T09:05:16.377Z,7.30
2019-03-23T09:10:26.249Z,7.30
2019-03-23T09:15:32.137Z,7.40
2019-03-23T09:20:36.519Z,7.50
2019-03-23T09:25:42.020Z,7.60
2019-03-23T09:31:14.198Z,7.60
2019-03-23T09:36:22.909Z,7.60
2019-03-23T09:42:02.060Z,7.70
2019-03-23T09:47:11.980Z,7.80
2019-03-23T09:52:18.710Z,7.80
2019-03-23T09:57:24.402Z,7.90
2019-03-23T10:02:36.188Z,8.00
2019-03-23T10:08:03.574Z,8.00
2019-03-23T10:13:08.085Z,8.10
2019-03-23T10:19:13.691Z,8.20
2019-03-23T10:24:46.599Z,8.30
2019-03-23T10:29:51.347Z,8.50
2019-03-23T10:34:56.028Z,8.80
2019-03-23T10:40:02.496Z,8.90
2019-03-23T10:45:07.028Z,9.10
2019-03-23T10:50:11.395Z,9.30
2019-03-23T10:55:17.278Z,9.50
2019-03-23T11:00:21.632Z,9.60
2019-03-23T11:05:26.078Z,9.70
2019-03-23T11:10:31.538Z,9.80
2019-03-23T11:15:36.100Z,9.90
2019-03-23T11:20:41.047Z,9.90
2019-03-23T11:25:45.311Z,9.90
2019-03-23T11:30:49.780Z,9.80
2019-03-23T11:35:58.106Z,9.80
2019-03-23T11:41:01.300Z,9.90
2019-03-23T11:46:05.676Z,10.10
2019-03-23T11:51:10.017Z,10.30
2019-03-23T11:56:14.587Z,10.50
2019-03-23T12:01:19.134Z,10.60
2019-03-23T12:06:23.443Z,10.70
2019-03-23T12:11:28.112Z,10.90
2019-03-23T12:16:31.578Z,11.00
2019-03-23T12:21:36.150Z,11.10
2019-03-23T12:26:40.482Z,11.30
2019-03-23T12:31:45.111Z,11.70
2019-03-23T12:36:49.681Z,12.10
2019-03-23T12:41:54.662Z,12.50
2019-03-23T12:46:58.996Z,12.70
2019-03-23T12:52:04.619Z,12.90
2019-03-23T12:57:09.047Z,13.00
2019-03-23T13:02:13.400Z,12.80
2019-03-23T13:07:17.758Z,13.00
2019-03-23T13:12:22.102Z,13.10
2019-03-23T13:17:26.763Z,13.00
2019-03-23T13:22:31.314Z,12.90
2019-03-23T13:27:35.924Z,12.90
2019-03-23T13:32:40.253Z,13.10
2019-03-23T13:37:44.828Z,13.00
2019-03-23T13:42:49.136Z,13.00
2019-03-23T13:47:54.939Z,13.10
2019-03-23T13:52:59.413Z,13.20
2019-03-23T13:58:09.890Z,13.20
2019-03-23T14:03:14.894Z,13.40
2019-03-23T14:08:19.518Z,13.60
2019-03-23T14:13:27.785Z,13.80
2019-03-23T14:18:32.044Z,13.70
2019-03-23T14:23:36.437Z,13.80
2019-03-23T14:28:40.850Z,13.80
2019-03-23T14:33:47.361Z,13.70
2019-03-23T14:38:52.159Z,13.60
2019-03-23T14:43:59.443Z,13.60
2019-03-23T14:49:03.860Z,13.40
2019-03-23T14:54:08.657Z,13.30
2019-03-23T14:59:11.838Z,13.20
2019-03-23T15:04:16.146Z,13.20
2019-03-23T15:09:20.487Z,13.10
2019-03-23T15:14:24.759Z,13.00
2019-03-23T15:19:29.362Z,13.00
2019-03-23T15:24:37.815Z,12.80
2019-03-23T15:29:42.466Z,12.70
2019-03-23T15:34:47.280Z,12.50
2019-03-23T15:39:50.957Z,12.40
2019-03-23T15:44:55.388Z,12.20
2019-03-23T15:49:59.773Z,12.10
2019-03-23T15:55:05.781Z,12.00
2019-03-23T16:00:11.431Z,12.00
2019-03-23T16:05:18.940Z,11.90
2019-03-23T16:10:23.298Z,11.80
2019-03-23T16:15:27.566Z,11.70
2019-03-23T16:20:35.656Z,11.60
2019-03-23T16:25:43.354Z,11.50
2019-03-23T16:30:48.143Z,11.40
2019-03-23T16:35:53.874Z,11.30
2019-03-23T16:41:01.626Z,11.30
2019-03-23T16:46:06.025Z,11.20
2019-03-23T16:51:12.187Z,11.10
2019-03-23T16:56:16.569Z,11.00
2019-03-23T17:01:23.730Z,11.00
2019-03-23T17:06:28.055Z,10.90
2019-03-23T17:11:39.283Z,10.90
2019-03-23T17:16:46.744Z,10.80
2019-03-23T17:21:53.034Z,10.80
2019-03-23T17:27:00.064Z,10.70
2019-03-23T17:32:06.352Z,10.70
2019-03-23T17:37:10.935Z,10.60
2019-03-23T17:42:15.615Z,10.60
2019-03-23T17:47:19.954Z,10.50
2019-03-23T17:52:25.131Z,10.50
2019-03-23T17:57:29.828Z,10.50
2019-03-23T18:02:34.963Z,10.40
2019-03-23T18:07:39.911Z,10.40
2019-03-23T18:12:44.319Z,10.40
2019-03-23T18:17:56.166Z,10.40
2019-03-23T18:23:00.539Z,10.40
2019-03-23T18:28:04.933Z,10.40
2019-03-23T18:33:11.162Z,10.40
2019-03-23T18:38:15.546Z,10.40
2019-03-23T18:43:27.339Z,10.30
2019-03-23T18:48:26.288Z,10.30
2019-03-23T18:53:30.600Z,10.30
2019-03-23T18:58:34.887Z,10.30
2019-03-23T19:03:40.449Z,10.30
2019-03-23T19:08:44.909Z,10.30
2019-03-23T19:13:49.637Z,10.20
2019-03-23T19:18:52.827Z,10.20
2019-03-23T19:23:57.194Z,10.10
2019-03-23T19:29:01.489Z,10.10
2019-03-23T19:34:05.852Z,10.00
2019-03-23T19:39:14.143Z,10.00
2019-03-23T19:44:21.265Z,9.90
2019-03-23T19:49:25.598Z,9.90
2019-03-23T19:54:30.160Z,9.90
2019-03-23T19:59:34.505Z,9.80
2019-03-23T20:04:39.403Z,9.80
2019-03-23T20:09:43.708Z,9.80
2019-03-23T20:14:47.984Z,9.80
2019-03-23T20:19:52.297Z,9.80
2019-03-23T20:24:56.644Z,9.80
2019-03-23T20:30:01.066Z,9.70
2019-03-23T20:35:05.741Z,9.70
2019-03-23T20:40:10.600Z,9.70
2019-03-23T20:45:28.537Z,9.60
2019-03-23T20:50:33.718Z,9.60
2019-03-23T20:55:38.024Z,9.60
2019-03-23T21:00:42.435Z,9.50
2019-03-23T21:05:47.140Z,9.50
2019-03-23T21:10:50.378Z,9.40
2019-03-23T21:15:54.674Z,9.30
2019-03-23T21:20:58.994Z,9.20
2019-03-23T21:26:04.128Z,9.20
2019-03-23T21:31:09.496Z,9.20
2019-03-23T21:36:13.826Z,9.10
2019-03-23T21:41:18.515Z,9.10
2019-03-23T21:46:21.690Z,9.10
2019-03-23T21:51:25.981Z,9.00
2019-03-23T21:56:31.163Z,9.00
2019-03-23T22:01:35.819Z,9.00
2019-03-23T22:06:40.125Z,8.90
2019-03-23T22:11:44.463Z,8.90
2019-03-23T22:16:50.167Z,8.90
2019-03-23T22:21:54.529Z,8.80
2019-03-23T22:26:58.889Z,8.80
2019-03-23T22:32:07.106Z,8.70
2019-03-23T22:37:11.411Z,8.70
2019-03-23T22:42:16.516Z,8.60
2019-03-23T22:47:20.865Z,8.60
2019-03-23T22:52:25.242Z,8.50
2019-03-23T22:57:29.479Z,8.50
2019-03-23T23:02:33.934Z,8.40
2019-03-23T23:07:38.318Z,8.40
2019-03-23T23:12:42.617Z,8.30
2019-03-23T23:17:47.141Z,8.30
2019-03-23T23:22:51.488Z,8.20
2019-03-23T23:27:56.113Z,8.10
2019-03-23T23:33:00.679Z,8.10
2019-03-23T23:38:05.053Z,8.00
2019-03-23T23:43:09.831Z,7.90
2019-03-23T23:48:13.287Z,7.80
2019-03-23T23:53:17.639Z,7.70
2019-03-23T23:58:22.251Z,7.70
